createdAt,value
2018-11-20T00:00:49.909Z,3.50
2018-11-20T00:03:31.110Z,3.50
2018-11-20T00:06:30.809Z,3.60
2018-11-20T00:09:31.220Z,3.60
2018-11-20T00:12:31.410Z,3.60
2018-11-20T00:15:31.786Z,3.60
2018-11-20T00:18:26.537Z,3.60
2018-11-20T00:21:32.426Z,3.60
2018-11-20T00:24:35.621Z,3.60
2018-11-20T00:27:35.515Z,3.60
2018-11-20T00:30:41.892Z,3.60
2018-11-20T00:33:42.042Z,3.60
2018-11-20T00:36:44.826Z,3.70
2018-11-20T00:39:44.593Z,3.60
2018-11-20T00:42:44.164Z,3.60
2018-11-20T00:45:50.026Z,3.50
2018-11-20T00:48:48.480Z,3.60
2018-11-20T00:51:51.528Z,3.60
2018-11-20T00:54:45.964Z,3.50
2018-11-20T00:57:45.685Z,3.50
2018-11-20T01:00:45.816Z,3.50
2018-11-20T01:03:46.233Z,3.50
2018-11-20T01:06:44.981Z,3.50
2018-11-20T01:09:47.629Z,3.50
2018-11-20T01:12:47.220Z,3.40
2018-11-20T01:15:47.629Z,3.40
2018-11-20T01:18:43.521Z,3.40
2018-11-20T01:21:24.819Z,3.40
2018-11-20T01:24:24.876Z,3.40
2018-11-20T01:27:25.176Z,3.40
2018-11-20T01:30:24.953Z,3.40
2018-11-20T01:33:28.029Z,3.40
2018-11-20T01:36:28.235Z,3.40
2018-11-20T01:39:27.899Z,3.40
2018-11-20T01:42:31.342Z,3.30
2018-11-20T01:45:31.132Z,3.30
2018-11-20T01:48:28.720Z,3.30
2018-11-20T01:51:28.737Z,3.30
2018-11-20T01:54:24.712Z,3.20
2018-11-20T01:57:23.665Z,3.20
2018-11-20T02:00:23.492Z,3.20
2018-11-20T02:03:23.379Z,3.30
2018-11-20T02:06:23.634Z,3.20
2018-11-20T02:09:23.923Z,3.20
2018-11-20T02:12:24.184Z,3.20
2018-11-20T02:15:24.283Z,3.20
2018-11-20T02:18:24.350Z,3.20
2018-11-20T02:21:24.180Z,3.20
2018-11-20T02:24:24.195Z,3.10
2018-11-20T02:27:24.376Z,3.20
2018-11-20T02:30:27.187Z,3.20
2018-11-20T02:33:27.071Z,3.10
2018-11-20T02:36:25.173Z,3.10
2018-11-20T02:39:15.043Z,3.10
2018-11-20T02:42:14.621Z,3.00
2018-11-20T02:45:14.414Z,3.00
2018-11-20T02:48:04.775Z,3.00
2018-11-20T02:51:04.745Z,3.00
2018-11-20T02:54:05.603Z,3.00
2018-11-20T02:56:47.112Z,3.00
2018-11-20T02:59:46.805Z,3.00
2018-11-20T03:02:28.050Z,3.00
2018-11-20T03:05:27.955Z,3.10
2018-11-20T03:08:19.293Z,3.00
2018-11-20T03:11:19.728Z,3.10
2018-11-20T03:14:25.804Z,3.10
2018-11-20T03:17:25.653Z,3.10
2018-11-20T03:20:32.098Z,3.20
2018-11-20T03:23:32.362Z,3.20
2018-11-20T03:26:32.036Z,3.20
2018-11-20T03:29:32.376Z,3.20
2018-11-20T03:32:38.389Z,3.20
2018-11-20T03:35:31.394Z,3.10
2018-11-20T03:38:23.919Z,3.20
2018-11-20T03:41:23.932Z,3.20
2018-11-20T03:44:26.764Z,3.20
2018-11-20T03:47:19.402Z,3.20
2018-11-20T03:50:19.354Z,3.20
2018-11-20T03:53:19.007Z,3.20
2018-11-20T03:56:18.846Z,3.20
2018-11-20T03:59:18.618Z,3.20
2018-11-20T04:02:18.632Z,3.20
2018-11-20T04:05:21.566Z,3.20
2018-11-20T04:08:20.958Z,3.20
2018-11-20T04:11:20.756Z,3.20
2018-11-20T04:14:02.071Z,3.20
2018-11-20T04:19:44.855Z,3.30
2018-11-20T04:22:48.408Z,3.30
2018-11-20T04:25:48.705Z,3.30
2018-11-20T04:28:48.341Z,3.30
2018-11-20T04:31:29.382Z,3.30
2018-11-20T04:34:10.398Z,3.30
2018-11-20T04:37:10.408Z,3.40
2018-11-20T04:40:01.992Z,3.40
2018-11-20T04:43:02.114Z,3.40
2018-11-20T04:46:02.347Z,3.40
2018-11-20T04:49:05.418Z,3.40
2018-11-20T04:52:11.598Z,3.50
2018-11-20T04:55:11.439Z,3.50
2018-11-20T04:58:14.516Z,3.50
2018-11-20T05:01:17.575Z,3.50
2018-11-20T05:04:14.708Z,3.50
2018-11-20T05:07:14.364Z,3.50
2018-11-20T05:10:14.482Z,3.60
2018-11-20T05:13:17.928Z,3.60
2018-11-20T05:16:21.096Z,3.70
2018-11-20T05:19:26.551Z,3.70
2018-11-20T05:22:26.377Z,3.70
2018-11-20T05:28:09.417Z,3.80
2018-11-20T05:31:09.500Z,3.80
2018-11-20T05:34:10.097Z,3.80
2018-11-20T05:37:10.268Z,3.80
2018-11-20T05:40:16.412Z,3.90
2018-11-20T05:43:16.599Z,3.90
2018-11-20T05:46:19.368Z,3.90
2018-11-20T05:49:19.148Z,3.90
2018-11-20T05:52:19.067Z,4.00
2018-11-20T05:55:25.058Z,4.00
2018-11-20T05:58:24.645Z,4.00
2018-11-20T06:01:24.258Z,4.00
2018-11-20T06:04:24.705Z,4.00
2018-11-20T06:07:24.401Z,4.00
2018-11-20T06:10:24.402Z,4.00
2018-11-20T06:13:24.422Z,4.00
2018-11-20T06:16:24.265Z,4.00
2018-11-20T06:19:27.111Z,4.00
2018-11-20T06:22:27.100Z,4.00
2018-11-20T06:25:26.875Z,4.00
2018-11-20T06:28:30.043Z,4.00
2018-11-20T06:31:30.005Z,4.00
2018-11-20T06:34:30.233Z,4.00
2018-11-20T06:37:28.837Z,4.10
2018-11-20T06:40:23.306Z,4.10
2018-11-20T06:43:23.377Z,4.10
2018-11-20T06:46:23.188Z,4.10
2018-11-20T06:49:23.053Z,4.10
2018-11-20T06:52:25.743Z,4.10
2018-11-20T06:55:25.558Z,4.10
2018-11-20T07:01:08.773Z,4.10
2018-11-20T07:04:08.572Z,4.10
2018-11-20T07:07:08.314Z,4.10
2018-11-20T07:10:08.073Z,4.10
2018-11-20T07:13:03.881Z,4.10
2018-11-20T07:16:04.576Z,4.10
2018-11-20T07:19:04.144Z,4.10
2018-11-20T07:22:07.517Z,4.10
2018-11-20T07:25:07.661Z,4.20
2018-11-20T07:28:07.150Z,4.10
2018-11-20T07:31:07.974Z,4.10
2018-11-20T07:34:13.573Z,4.10
2018-11-20T07:37:03.222Z,4.10
2018-11-20T07:40:06.036Z,4.20
2018-11-20T07:43:05.936Z,4.20
2018-11-20T07:46:06.083Z,4.20
2018-11-20T07:49:04.823Z,4.20
2018-11-20T07:52:04.558Z,4.20
2018-11-20T07:55:04.849Z,4.20
2018-11-20T07:58:04.824Z,4.20
2018-11-20T08:01:04.327Z,4.20
2018-11-20T08:04:00.524Z,4.30
2018-11-20T08:10:03.640Z,4.30
2018-11-20T08:12:53.617Z,4.30
2018-11-20T08:15:54.039Z,4.30
2018-11-20T08:18:54.221Z,4.30
2018-11-20T08:21:54.772Z,4.30
2018-11-20T08:24:54.899Z,4.30
2018-11-20T08:30:38.246Z,4.30
2018-11-20T08:33:37.748Z,4.30
2018-11-20T08:39:43.707Z,4.40
2018-11-20T08:42:43.785Z,4.40
2018-11-20T08:45:43.901Z,4.50
2018-11-20T08:48:38.013Z,4.40
2018-11-20T08:51:37.452Z,4.50
2018-11-20T08:54:35.315Z,4.50
2018-11-20T08:57:35.270Z,4.50
2018-11-20T09:00:35.482Z,4.60
2018-11-20T09:03:35.629Z,4.50
2018-11-20T09:06:37.052Z,4.50
2018-11-20T09:09:32.016Z,4.60
2018-11-20T09:12:32.092Z,4.70
2018-11-20T09:15:26.025Z,4.60
2018-11-20T09:18:31.635Z,4.70
2018-11-20T09:21:31.646Z,4.70
2018-11-20T09:24:31.277Z,4.70
2018-11-20T09:27:31.175Z,4.70
2018-11-20T09:30:31.392Z,4.70
2018-11-20T09:33:31.382Z,4.70
2018-11-20T09:36:27.978Z,4.70
2018-11-20T09:39:27.703Z,4.70
2018-11-20T09:42:27.309Z,4.70
2018-11-20T09:45:27.042Z,4.70
2018-11-20T09:48:23.740Z,4.80
2018-11-20T09:51:29.758Z,4.70
2018-11-20T09:57:32.720Z,4.80
2018-11-20T10:00:38.943Z,4.80
2018-11-20T10:03:39.306Z,4.80
2018-11-20T10:06:39.240Z,4.80
2018-11-20T10:09:38.813Z,5.00
2018-11-20T10:12:28.342Z,4.90
2018-11-20T10:15:22.440Z,5.10
2018-11-20T10:18:22.775Z,5.20
2018-11-20T10:21:22.987Z,5.30
2018-11-20T10:24:22.787Z,5.20
2018-11-20T10:27:22.241Z,5.20
2018-11-20T10:30:22.505Z,5.30
2018-11-20T10:33:25.682Z,5.20
2018-11-20T10:36:25.457Z,5.30
2018-11-20T10:39:25.858Z,5.20
2018-11-20T10:42:25.627Z,5.40
2018-11-20T10:45:31.480Z,5.40
2018-11-20T10:48:31.112Z,5.40
2018-11-20T10:51:31.074Z,5.40
2018-11-20T10:54:28.799Z,5.40
2018-11-20T10:57:29.001Z,5.50
2018-11-20T11:00:28.968Z,5.80
2018-11-20T11:03:28.885Z,5.60
2018-11-20T11:06:32.373Z,5.70
2018-11-20T11:09:31.919Z,5.40
2018-11-20T11:12:32.153Z,5.50
2018-11-20T11:15:32.403Z,5.50
2018-11-20T11:18:32.258Z,5.60
2018-11-20T11:21:29.892Z,5.60
2018-11-20T11:24:29.509Z,5.70
2018-11-20T11:27:29.543Z,5.70
2018-11-20T11:30:32.551Z,5.80
2018-11-20T11:33:38.191Z,5.80
2018-11-20T11:36:38.322Z,5.90
2018-11-20T11:39:38.033Z,6.00
2018-11-20T11:42:40.804Z,5.90
2018-11-20T11:45:41.018Z,5.90
2018-11-20T11:48:41.383Z,5.90
2018-11-20T11:51:47.277Z,6.10
2018-11-20T11:57:49.069Z,6.20
2018-11-20T12:00:48.921Z,6.20
2018-11-20T12:03:42.158Z,6.10
2018-11-20T12:06:42.346Z,6.10
2018-11-20T12:09:42.397Z,6.10
2018-11-20T12:12:42.268Z,5.90
2018-11-20T12:15:41.808Z,5.90
2018-11-20T12:18:42.015Z,6.10
2018-11-20T12:21:32.639Z,6.10
2018-11-20T12:24:32.276Z,6.00
2018-11-20T12:27:32.304Z,6.10
2018-11-20T12:30:32.640Z,6.10
2018-11-20T12:33:37.870Z,6.10
2018-11-20T12:36:38.230Z,6.10
2018-11-20T12:39:40.683Z,6.10
2018-11-20T12:45:41.139Z,6.00
2018-11-20T12:48:41.531Z,6.10
2018-11-20T12:51:41.270Z,6.10
2018-11-20T12:54:41.049Z,6.00
2018-11-20T12:57:43.919Z,6.00
2018-11-20T13:00:42.837Z,6.10
2018-11-20T13:03:43.326Z,6.00
2018-11-20T13:06:38.818Z,6.00
2018-11-20T13:12:21.182Z,5.90
2018-11-20T13:15:27.683Z,5.70
2018-11-20T13:18:25.536Z,5.80
2018-11-20T13:21:25.710Z,5.70
2018-11-20T13:24:25.420Z,5.80
2018-11-20T13:27:25.141Z,5.70
2018-11-20T13:30:25.227Z,5.70
2018-11-20T13:33:31.570Z,5.70
2018-11-20T13:36:31.518Z,5.80
2018-11-20T13:39:31.651Z,5.70
2018-11-20T13:42:20.015Z,5.70
2018-11-20T13:45:22.798Z,5.70
2018-11-20T13:48:14.814Z,5.60
2018-11-20T13:51:14.901Z,5.60
2018-11-20T13:54:14.938Z,5.60
2018-11-20T13:57:18.141Z,5.70
2018-11-20T14:00:23.842Z,5.60
2018-11-20T14:03:11.861Z,5.60
2018-11-20T14:06:12.093Z,5.50
2018-11-20T14:09:11.918Z,5.60
2018-11-20T14:12:14.956Z,5.50
2018-11-20T14:15:14.932Z,5.40
2018-11-20T14:18:15.069Z,5.50
2018-11-20T14:21:14.621Z,5.50
2018-11-20T14:24:14.097Z,5.40
2018-11-20T14:27:14.333Z,5.50
2018-11-20T14:30:14.511Z,5.50
2018-11-20T14:33:14.524Z,5.40
2018-11-20T14:36:08.706Z,5.40
2018-11-20T14:39:08.856Z,5.40
2018-11-20T14:42:08.407Z,5.40
2018-11-20T14:45:00.596Z,5.40
2018-11-20T14:48:00.914Z,5.40
2018-11-20T14:51:04.097Z,5.50
2018-11-20T14:54:07.406Z,5.40
2018-11-20T14:57:07.788Z,5.30
2018-11-20T15:00:13.771Z,5.40
2018-11-20T15:03:13.718Z,5.40
2018-11-20T15:06:13.771Z,5.30
2018-11-20T15:09:06.178Z,5.30
2018-11-20T15:12:06.391Z,5.30
2018-11-20T15:18:17.615Z,5.30
2018-11-20T15:21:12.006Z,5.30
2018-11-20T15:24:11.754Z,5.20
2018-11-20T15:27:11.551Z,5.20
2018-11-20T15:30:14.871Z,5.20
2018-11-20T15:33:05.357Z,5.30
2018-11-20T15:36:00.841Z,5.20
2018-11-20T15:39:00.567Z,5.20
2018-11-20T15:42:06.854Z,5.20
2018-11-20T15:45:03.048Z,5.20
2018-11-20T15:48:03.008Z,5.20
2018-11-20T15:51:08.940Z,5.30
2018-11-20T15:54:08.356Z,5.20
2018-11-20T15:57:11.506Z,5.30
2018-11-20T16:03:14.164Z,5.30
2018-11-20T16:06:08.958Z,5.20
2018-11-20T16:09:00.771Z,5.30
2018-11-20T16:12:00.599Z,5.30
2018-11-20T16:14:55.386Z,5.30
2018-11-20T16:17:55.233Z,5.30
2018-11-20T16:21:01.653Z,5.30
2018-11-20T16:24:01.611Z,5.20
2018-11-20T16:27:01.362Z,5.20
2018-11-20T16:30:01.012Z,5.30
2018-11-20T16:33:00.809Z,5.30
2018-11-20T16:36:03.684Z,5.20
2018-11-20T16:39:06.947Z,5.20
2018-11-20T16:42:06.736Z,5.30
2018-11-20T16:45:06.956Z,5.20
2018-11-20T16:48:06.893Z,5.20
2018-11-20T16:51:06.512Z,5.20
2018-11-20T16:54:06.188Z,5.20
2018-11-20T16:57:05.742Z,5.20
2018-11-20T17:00:05.694Z,5.10
2018-11-20T17:05:48.082Z,5.10
2018-11-20T17:11:31.115Z,5.10
2018-11-20T17:14:33.642Z,5.10
2018-11-20T17:17:33.127Z,5.10
2018-11-20T17:20:33.137Z,5.10
2018-11-20T17:23:33.231Z,5.10
2018-11-20T17:26:29.920Z,5.00
2018-11-20T17:29:30.155Z,5.00
2018-11-20T17:32:29.910Z,5.00
2018-11-20T17:35:29.877Z,5.00
2018-11-20T17:38:30.218Z,5.00
2018-11-20T17:41:29.820Z,5.00
2018-11-20T17:44:29.687Z,5.00
2018-11-20T17:47:35.599Z,4.90
2018-11-20T17:50:35.901Z,5.00
2018-11-20T17:53:36.252Z,4.90
2018-11-20T17:56:42.221Z,5.00
2018-11-20T17:59:34.334Z,5.00
2018-11-20T18:02:34.730Z,4.90
2018-11-20T18:05:34.344Z,4.90
2018-11-20T18:08:34.703Z,4.90
2018-11-20T18:11:34.995Z,4.90
2018-11-20T18:14:34.748Z,4.90
2018-11-20T18:17:27.851Z,4.90
2018-11-20T18:20:27.622Z,4.90
2018-11-20T18:23:30.418Z,4.80
2018-11-20T18:26:30.090Z,4.80
2018-11-20T18:29:33.439Z,4.90
2018-11-20T18:32:33.240Z,4.80
2018-11-20T18:35:36.287Z,4.80
2018-11-20T18:41:18.540Z,4.80
2018-11-20T18:44:18.723Z,4.70
2018-11-20T18:47:18.518Z,4.70
2018-11-20T18:50:21.806Z,4.70
2018-11-20T18:53:22.879Z,4.70
2018-11-20T18:56:22.292Z,4.70
2018-11-20T18:59:21.769Z,4.70
2018-11-20T19:05:04.346Z,4.70
2018-11-20T19:08:04.448Z,4.70
2018-11-20T19:11:08.060Z,4.70
2018-11-20T19:14:07.714Z,4.70
2018-11-20T19:17:07.526Z,4.70
2018-11-20T19:20:07.370Z,4.70
2018-11-20T19:23:05.295Z,4.70
2018-11-20T19:26:11.431Z,4.70
2018-11-20T19:31:53.802Z,4.70
2018-11-20T19:34:53.399Z,4.70
2018-11-20T19:37:53.657Z,4.70
2018-11-20T19:40:53.689Z,4.70
2018-11-20T19:43:59.817Z,4.70
2018-11-20T19:46:59.977Z,4.70
2018-11-20T19:49:59.721Z,4.70
2018-11-20T19:52:59.427Z,4.70
2018-11-20T19:55:59.694Z,4.70
2018-11-20T19:59:05.892Z,4.70
2018-11-20T20:02:05.692Z,4.60
2018-11-20T20:05:11.638Z,4.60
2018-11-20T20:08:12.019Z,4.60
2018-11-20T20:11:12.196Z,4.60
2018-11-20T20:14:12.360Z,4.50
2018-11-20T20:17:15.634Z,4.50
2018-11-20T20:20:18.529Z,4.40
2018-11-20T20:23:25.426Z,4.40
2018-11-20T20:26:25.361Z,4.40
2018-11-20T20:29:28.494Z,4.30
2018-11-20T20:32:27.986Z,4.10
2018-11-20T20:35:31.194Z,4.10
2018-11-20T20:38:30.935Z,4.10
2018-11-20T20:41:30.627Z,4.10
2018-11-20T20:44:33.653Z,4.10
2018-11-20T20:47:34.182Z,4.00
2018-11-20T20:50:37.365Z,3.80
2018-11-20T20:53:43.147Z,3.80
2018-11-20T20:56:46.027Z,3.70
2018-11-20T20:59:46.531Z,3.60
2018-11-20T21:02:46.995Z,3.60
2018-11-20T21:05:46.860Z,3.50
2018-11-20T21:08:47.014Z,3.40
2018-11-20T21:11:39.629Z,3.40
2018-11-20T21:14:39.382Z,3.40
2018-11-20T21:17:44.898Z,3.40
2018-11-20T21:20:48.430Z,3.40
2018-11-20T21:26:36.761Z,3.30
2018-11-20T21:29:41.663Z,3.40
2018-11-20T21:32:42.271Z,3.40
2018-11-20T21:35:46.827Z,3.50
2018-11-20T21:38:41.905Z,3.60
2018-11-20T21:41:48.065Z,3.60
2018-11-20T21:44:48.004Z,3.60
2018-11-20T21:47:48.143Z,3.60
2018-11-20T21:50:47.828Z,3.60
2018-11-20T21:53:47.386Z,3.60
2018-11-20T21:56:47.742Z,3.70
2018-11-20T21:59:45.056Z,3.70
2018-11-20T22:02:44.911Z,3.80
2018-11-20T22:05:45.187Z,3.80
2018-11-20T22:08:45.122Z,3.80
2018-11-20T22:14:34.350Z,3.90
2018-11-20T22:17:34.397Z,3.90
2018-11-20T22:20:34.173Z,3.90
2018-11-20T22:23:15.619Z,4.00
2018-11-20T22:26:15.681Z,4.00
2018-11-20T22:29:15.502Z,4.00
2018-11-20T22:32:15.261Z,4.00
2018-11-20T22:38:23.733Z,4.10
2018-11-20T22:41:23.595Z,4.10
2018-11-20T22:46:02.677Z,4.20
2018-11-20T22:48:49.182Z,4.20
2018-11-20T22:51:30.502Z,4.30
2018-11-20T22:54:21.317Z,4.30
2018-11-20T22:57:17.830Z,4.30
2018-11-20T22:59:53.703Z,4.30
2018-11-20T23:02:57.078Z,4.40
2018-11-20T23:05:49.454Z,4.40
2018-11-20T23:08:18.269Z,4.50
2018-11-20T23:10:47.259Z,4.50
2018-11-20T23:13:16.559Z,4.50
2018-11-20T23:15:45.357Z,4.60
2018-11-20T23:18:14.276Z,4.60
2018-11-20T23:20:43.499Z,4.50
2018-11-20T23:23:12.181Z,4.60
2018-11-20T23:25:41.109Z,4.60
2018-11-20T23:28:10.447Z,4.60
2018-11-20T23:30:40.163Z,4.60
2018-11-20T23:33:09.178Z,4.60
2018-11-20T23:35:38.311Z,4.60
2018-11-20T23:38:07.532Z,4.60
2018-11-20T23:40:36.422Z,4.60
2018-11-20T23:43:05.943Z,4.60
2018-11-20T23:45:35.058Z,4.60
2018-11-20T23:48:03.768Z,4.60
2018-11-20T23:50:32.816Z,4.60
2018-11-20T23:53:01.617Z,4.60
2018-11-20T23:55:30.711Z,4.50
2018-11-20T23:57:59.533Z,4.40
